Time;durP1;ratioP1;P1;durP2;ratioP2;P2;SDS_P1;SDS_P2;PMS_P1;PMS_P2;Temp;Humidity;BMP_temperature;BMP_pressure;BME280_temperature;BME280_humidity;BME280_pressure;Samples;Min_cycle;Max_cycle;Signal;HPM_P1;HPM_P2
2022/12/09 00:00:33;;;;;;;11.88;6.22;;;-0.40;99.90;;;;;;5014841;28;20093;-70
2022/12/09 00:02:58;;;;;;;11.53;6.00;;;-0.40;99.90;;;;;;5013274;28;20080;-70
2022/12/09 00:05:24;;;;;;;14.93;7.50;;;-0.50;99.90;;;;;;5019542;28;20265;-70
2022/12/09 00:07:49;;;;;;;12.53;5.57;;;-0.50;99.90;;;;;;5019524;28;20099;-70
2022/12/09 00:10:15;;;;;;;10.67;5.73;;;-0.50;99.90;;;;;;5018872;28;20056;-70
2022/12/09 00:12:41;;;;;;;15.07;5.83;;;-0.60;99.90;;;;;;5010663;28;20049;-69
2022/12/09 00:15:07;;;;;;;13.63;5.60;;;-0.60;99.90;;;;;;5011401;28;20034;-70
2022/12/09 00:17:34;;;;;;;13.55;5.95;;;-0.60;99.90;;;;;;5015430;28;20053;-70
2022/12/09 00:19:59;;;;;;;13.43;5.65;;;-0.70;99.90;;;;;;5017064;28;20037;-70
2022/12/09 00:22:26;;;;;;;10.50;5.90;;;-0.70;99.90;;;;;;5014535;28;20487;-69
2022/12/09 00:24:51;;;;;;;12.63;5.45;;;-0.70;99.90;;;;;;5018878;28;20044;-70
2022/12/09 00:27:17;;;;;;;13.60;5.80;;;-0.80;99.90;;;;;;5018666;28;20049;-72
2022/12/09 00:29:42;;;;;;;11.63;5.40;;;-0.80;99.90;;;;;;5012779;28;20323;-70
2022/12/09 00:32:09;;;;;;;13.20;5.77;;;-0.80;99.90;;;;;;5017694;28;20500;-70
2022/12/09 00:34:34;;;;;;;10.82;5.18;;;-0.80;99.90;;;;;;5015921;28;20045;-70
2022/12/09 00:37:00;;;;;;;13.30;5.70;;;-0.80;99.90;;;;;;5018023;28;20403;-68
2022/12/09 00:39:26;;;;;;;14.20;6.50;;;-0.90;99.90;;;;;;5009018;28;20087;-68
2022/12/09 00:41:51;;;;;;;15.17;6.90;;;-0.90;99.90;;;;;;5011250;28;20041;-69
2022/12/09 00:44:18;;;;;;;16.05;6.85;;;-0.90;99.90;;;;;;5012583;28;20559;-68
2022/12/09 00:46:43;;;;;;;17.27;7.00;;;-0.90;99.90;;;;;;5006421;28;20529;-69
2022/12/09 00:49:09;;;;;;;12.27;6.77;;;-0.90;99.90;;;;;;5012992;28;20088;-69
2022/12/09 00:51:35;;;;;;;15.82;6.45;;;-1.00;99.90;;;;;;5014132;28;20041;-68
2022/12/09 00:54:01;;;;;;;17.48;6.93;;;-1.00;99.90;;;;;;5012688;28;20049;-70
2022/12/09 00:56:28;;;;;;;14.82;6.45;;;-1.00;99.90;;;;;;5016524;28;20581;-70
2022/12/09 00:58:56;;;;;;;14.57;6.75;;;-1.00;99.90;;;;;;5015591;28;20062;-70
2022/12/09 01:01:22;;;;;;;13.18;5.75;;;-1.00;99.90;;;;;;5013320;28;20042;-70
2022/12/09 01:03:47;;;;;;;15.38;6.32;;;-1.00;99.90;;;;;;5020932;28;20502;-70
2022/12/09 01:06:20;;;;;;;14.53;6.47;;;-1.10;99.90;;;;;;5015489;28;20049;-71
2022/12/09 01:08:46;;;;;;;11.02;5.80;;;-1.10;99.90;;;;;;5017790;28;20479;-68
2022/12/09 01:11:22;;;;;;;14.57;5.60;;;-1.10;99.90;;;;;;5017358;28;20449;-69
2022/12/09 01:13:52;;;;;;;14.23;6.40;;;-1.10;99.90;;;;;;5016797;28;20414;-69
2022/12/09 01:16:21;;;;;;;14.77;6.57;;;-1.10;99.90;;;;;;5021673;28;20041;-68
2022/12/09 01:18:48;;;;;;;13.05;5.85;;;-1.10;99.90;;;;;;5013232;28;20409;-68
2022/12/09 01:21:13;;;;;;;13.38;5.80;;;-1.10;99.90;;;;;;5021357;28;20034;-68
2022/12/09 01:23:39;;;;;;;14.90;6.20;;;-1.00;99.90;;;;;;5022107;28;20346;-68
2022/12/09 01:26:06;;;;;;;13.13;6.23;;;-1.00;99.90;;;;;;5021754;28;20091;-68
2022/12/09 01:28:37;;;;;;;11.55;5.95;;;-1.10;99.90;;;;;;5019067;28;20048;-68
2022/12/09 01:31:13;;;;;;;14.30;6.05;;;-1.00;99.90;;;;;;5017396;28;20049;-68
2022/12/09 01:33:39;;;;;;;16.38;7.18;;;-1.00;99.90;;;;;;5018477;28;20049;-68
2022/12/09 01:36:12;;;;;;;11.98;5.90;;;-1.00;99.90;;;;;;5018791;28;20104;-68
2022/12/09 01:38:38;;;;;;;15.02;6.15;;;-1.10;99.90;;;;;;5020844;28;20058;-69
2022/12/09 01:41:04;;;;;;;12.73;6.00;;;-1.00;99.90;;;;;;5018837;28;20045;-68
2022/12/09 01:43:29;;;;;;;15.30;6.47;;;-1.00;99.90;;;;;;5018989;28;20041;-69
2022/12/09 01:45:55;;;;;;;17.03;6.83;;;-1.00;99.90;;;;;;5007073;28;20084;-68
2022/12/09 01:48:26;;;;;;;17.40;7.37;;;-1.00;99.90;;;;;;5017649;28;20041;-68
2022/12/09 01:50:59;;;;;;;15.65;6.38;;;-1.00;99.90;;;;;;5013688;28;20046;-68
2022/12/09 01:53:35;;;;;;;13.93;6.47;;;-1.00;99.90;;;;;;5017397;28;20041;-68
2022/12/09 01:56:05;;;;;;;17.38;6.85;;;-1.00;99.90;;;;;;5012962;28;20045;-69
2022/12/09 01:58:31;;;;;;;15.50;6.65;;;-1.00;99.90;;;;;;5021164;28;20045;-68
2022/12/09 02:00:57;;;;;;;16.45;7.32;;;-1.00;99.90;;;;;;5015906;28;20411;-69
2022/12/09 02:03:22;;;;;;;18.73;7.63;;;-1.00;99.90;;;;;;5018952;28;20046;-68
2022/12/09 02:05:48;;;;;;;16.37;6.73;;;-1.00;99.90;;;;;;5013582;28;20053;-69
2022/12/09 02:08:16;;;;;;;14.87;6.93;;;-1.00;99.90;;;;;;5015263;28;20043;-69
2022/12/09 02:10:47;;;;;;;16.83;7.10;;;-1.00;99.90;;;;;;5015204;28;20053;-69
2022/12/09 02:13:50;;;;;;;13.10;6.22;;;-0.90;99.90;;;;;;5032393;28;20459;-69
2022/12/09 02:16:23;;;;;;;15.35;6.53;;;-1.00;99.90;;;;;;5014539;28;20041;-69
2022/12/09 02:19:18;;;;;;;13.50;5.10;;;-0.90;99.90;;;;;;5017185;28;20065;-69
2022/12/09 02:21:51;;;;;;;13.90;6.22;;;-1.00;99.90;;;;;;5016761;28;20334;-69
2022/12/09 02:24:19;;;;;;;16.58;6.32;;;-1.00;99.90;;;;;;5000599;28;20052;-69
2022/12/09 02:27:04;;;;;;;14.35;5.55;;;-1.00;99.90;;;;;;5015832;28;20058;-69
2022/12/09 02:29:47;;;;;;;15.10;5.47;;;-1.00;99.90;;;;;;5017074;28;20706;-68
2022/12/09 02:32:32;;;;;;;15.15;5.93;;;-1.00;99.90;;;;;;5018132;28;20030;-69
2022/12/09 02:35:06;;;;;;;12.27;5.32;;;-1.00;99.90;;;;;;5018423;28;20170;-69
2022/12/09 02:38:21;;;;;;;12.27;4.93;;;-1.00;99.90;;;;;;5018857;28;20540;-69
2022/12/09 02:40:59;;;;;;;13.48;6.55;;;-1.00;99.90;;;;;;4929477;29;20051;-69
2022/12/09 02:43:29;;;;;;;12.52;5.30;;;-1.00;99.90;;;;;;4940961;28;20067;-68
2022/12/09 02:45:57;;;;;;;14.85;6.20;;;-1.00;99.90;;;;;;4989876;28;20049;-69
2022/12/09 02:48:29;;;;;;;14.98;5.43;;;-1.00;99.90;;;;;;5016226;28;20484;-69
2022/12/09 02:50:56;;;;;;;13.82;5.68;;;-1.10;99.90;;;;;;5018187;28;20556;-69
2022/12/09 02:53:24;;;;;;;9.52;5.07;;;-1.00;99.90;;;;;;5022054;28;20029;-68
2022/12/09 02:55:53;;;;;;;12.77;5.38;;;-1.10;99.90;;;;;;5022793;28;20092;-69
2022/12/09 02:58:19;;;;;;;12.40;5.45;;;-1.00;99.90;;;;;;5015145;28;20498;-68
2022/12/09 03:00:44;;;;;;;15.40;6.00;;;-1.00;99.90;;;;;;5019489;28;20030;-68
2022/12/09 03:03:16;;;;;;;14.57;5.83;;;-1.10;99.90;;;;;;5021197;28;20045;-69
2022/12/09 03:05:57;;;;;;;12.40;5.22;;;-1.00;99.90;;;;;;5017907;28;20466;-68
2022/12/09 03:08:54;;;;;;;12.73;5.28;;;-1.00;99.90;;;;;;5016430;28;20048;-69
2022/12/09 03:11:21;;;;;;;14.32;5.38;;;-0.90;99.90;;;;;;5020505;28;20457;-68
2022/12/09 03:13:58;;;;;;;12.35;5.25;;;-1.00;99.90;;;;;;5019806;28;20042;-68
2022/12/09 03:16:45;;;;;;;11.13;4.38;;;-1.00;99.90;;;;;;4995548;28;20137;-69
2022/12/09 03:19:33;;;;;;;13.20;5.22;;;-1.00;99.90;;;;;;5035479;28;20253;-69
2022/12/09 03:22:04;;;;;;;13.55;6.13;;;-1.00;99.90;;;;;;5014161;28;20042;-69
2022/12/09 03:24:41;;;;;;;14.43;6.22;;;-1.00;99.90;;;;;;5020441;28;20041;-69
2022/12/09 03:27:12;;;;;;;18.40;6.15;;;-1.00;99.90;;;;;;5021925;28;20044;-70
2022/12/09 03:29:41;;;;;;;12.38;5.72;;;-1.00;99.90;;;;;;5022727;28;20046;-69
2022/12/09 03:32:10;;;;;;;10.50;4.68;;;-1.00;99.90;;;;;;5017483;28;20128;-68
2022/12/09 03:34:41;;;;;;;12.55;6.22;;;-1.00;99.90;;;;;;5023421;28;20045;-69
2022/12/09 03:37:09;;;;;;;12.73;5.93;;;-1.00;99.90;;;;;;5022669;28;20094;-68
2022/12/09 03:39:37;;;;;;;16.20;5.47;;;-0.90;99.90;;;;;;5020641;28;20046;-70
2022/12/09 03:42:14;;;;;;;11.63;5.07;;;-0.90;99.90;;;;;;5020284;28;20041;-69
2022/12/09 03:44:57;;;;;;;12.82;5.35;;;-0.90;99.90;;;;;;5018027;28;20087;-69
2022/12/09 03:47:22;;;;;;;12.50;4.82;;;-0.80;99.90;;;;;;5020945;28;20045;-68
2022/12/09 03:49:51;;;;;;;15.33;6.60;;;-0.90;99.90;;;;;;5020817;28;20061;-69
2022/12/09 03:52:24;;;;;;;16.73;4.93;;;-0.90;99.90;;;;;;5015001;28;20404;-69
2022/12/09 03:54:57;;;;;;;13.75;5.78;;;-0.80;99.90;;;;;;5014173;28;20044;-69
2022/12/09 03:57:24;;;;;;;11.45;5.45;;;-0.80;99.90;;;;;;5017186;28;20116;-68
2022/12/09 03:59:54;;;;;;;10.35;5.20;;;-0.90;99.90;;;;;;5003307;28;20052;-69
2022/12/09 04:02:20;;;;;;;13.00;5.65;;;-0.90;99.90;;;;;;5018534;28;20121;-70
2022/12/09 04:04:46;;;;;;;12.35;5.82;;;-0.90;99.90;;;;;;5021244;28;20046;-69
2022/12/09 04:07:12;;;;;;;13.03;5.53;;;-0.90;99.90;;;;;;5023359;28;20049;-69
2022/12/09 04:09:37;;;;;;;12.50;5.23;;;-0.90;99.90;;;;;;5019576;28;20045;-69
2022/12/09 04:12:03;;;;;;;10.17;5.03;;;-0.90;99.90;;;;;;5018019;28;20321;-69
2022/12/09 04:14:29;;;;;;;11.73;5.63;;;-0.90;99.90;;;;;;5019678;28;20527;-72
2022/12/09 04:16:57;;;;;;;11.50;5.20;;;-0.80;99.90;;;;;;5016573;28;20045;-68
2022/12/09 04:19:23;;;;;;;14.90;5.20;;;-0.90;99.90;;;;;;5016840;28;20052;-71
2022/12/09 04:21:48;;;;;;;16.67;5.37;;;-0.90;99.90;;;;;;5018060;28;20052;-71
2022/12/09 04:24:16;;;;;;;11.90;5.30;;;-0.90;99.90;;;;;;5023162;28;20029;-69
2022/12/09 04:26:43;;;;;;;10.83;5.00;;;-1.00;99.90;;;;;;5022138;28;20132;-68
2022/12/09 04:29:10;;;;;;;11.30;4.82;;;-1.00;99.90;;;;;;5019079;28;20048;-69
2022/12/09 04:31:38;;;;;;;11.98;4.70;;;-1.00;99.90;;;;;;5019248;28;20041;-70
2022/12/09 04:34:07;;;;;;;12.48;5.85;;;-1.00;99.90;;;;;;5018322;28;20044;-69
2022/12/09 04:36:32;;;;;;;14.83;6.03;;;-1.00;99.90;;;;;;5021913;28;20033;-68
2022/12/09 04:38:58;;;;;;;13.80;6.27;;;-1.00;99.90;;;;;;5020174;28;20042;-69
2022/12/09 04:41:24;;;;;;;13.73;6.43;;;-1.10;99.90;;;;;;5021659;28;20049;-69
2022/12/09 04:43:50;;;;;;;14.53;5.57;;;-1.10;99.90;;;;;;5020440;28;20064;-68
2022/12/09 04:46:17;;;;;;;10.17;5.43;;;-1.10;99.90;;;;;;5023777;28;20033;-69
2022/12/09 04:48:43;;;;;;;12.13;4.88;;;-1.10;99.90;;;;;;5017809;28;20052;-69
2022/12/09 04:51:11;;;;;;;12.50;5.88;;;-1.20;99.90;;;;;;5021635;28;20045;-69
2022/12/09 04:53:37;;;;;;;12.98;5.82;;;-1.10;99.90;;;;;;5036593;22;20061;-69
2022/12/09 04:56:06;;;;;;;12.37;5.27;;;-1.10;99.90;;;;;;5005183;28;20038;-69
2022/12/09 04:58:32;;;;;;;15.65;6.18;;;-1.10;99.90;;;;;;4998128;28;20042;-69
2022/12/09 05:00:58;;;;;;;19.33;6.80;;;-1.10;99.90;;;;;;4981941;28;20052;-70
2022/12/09 05:03:24;;;;;;;15.00;6.97;;;-1.10;99.90;;;;;;5013973;28;20507;-70
2022/12/09 05:05:53;;;;;;;15.70;7.22;;;-1.10;99.90;;;;;;5003347;28;20475;-70
2022/12/09 05:08:18;;;;;;;11.30;5.00;;;-1.10;99.90;;;;;;5000079;28;20439;-70
2022/12/09 05:10:49;;;;;;;16.43;6.13;;;-1.10;99.90;;;;;;5002917;28;20081;-70
2022/12/09 05:13:15;;;;;;;16.13;5.65;;;-1.10;99.90;;;;;;5007422;28;20041;-70
2022/12/09 05:15:41;;;;;;;12.63;5.05;;;-1.10;99.90;;;;;;4996117;28;20082;-70
2022/12/09 05:18:07;;;;;;;14.63;6.05;;;-1.10;99.90;;;;;;4999052;28;20475;-70
2022/12/09 05:20:33;;;;;;;16.73;8.38;;;-1.00;99.90;;;;;;5000869;28;20106;-70
2022/12/09 05:22:58;;;;;;;13.27;5.55;;;-1.00;99.90;;;;;;5003263;28;20122;-70
2022/12/09 05:25:24;;;;;;;12.83;6.00;;;-1.00;99.90;;;;;;4989323;28;20547;-70
2022/12/09 05:27:52;;;;;;;17.83;5.70;;;-1.00;99.90;;;;;;5012547;28;20072;-70
2022/12/09 05:30:18;;;;;;;14.93;5.93;;;-1.00;99.90;;;;;;4997734;28;20163;-70
2022/12/09 05:32:43;;;;;;;10.77;5.27;;;-1.00;99.90;;;;;;5001802;28;20480;-71
2022/12/09 05:35:09;;;;;;;13.13;5.93;;;-1.00;99.90;;;;;;5006290;28;20466;-70
2022/12/09 05:37:34;;;;;;;12.47;5.70;;;-1.00;99.90;;;;;;4997417;28;20110;-70
2022/12/09 05:40:00;;;;;;;12.87;5.20;;;-1.00;99.90;;;;;;5003175;28;20038;-70
2022/12/09 05:42:26;;;;;;;13.77;5.70;;;-1.00;99.90;;;;;;4998678;28;20084;-70
2022/12/09 05:44:51;;;;;;;12.10;5.80;;;-1.00;99.90;;;;;;4999216;28;20049;-70
2022/12/09 05:47:17;;;;;;;14.87;5.90;;;-1.00;99.90;;;;;;4998560;28;20070;-71
2022/12/09 05:49:42;;;;;;;12.13;5.20;;;-1.00;99.90;;;;;;5004924;28;20109;-71
2022/12/09 05:52:09;;;;;;;18.33;6.73;;;-1.00;99.90;;;;;;5001260;28;20133;-70
2022/12/09 05:54:35;;;;;;;12.07;5.28;;;-1.00;99.90;;;;;;5004185;28;20042;-70
2022/12/09 05:57:02;;;;;;;15.50;6.97;;;-1.00;99.90;;;;;;5010808;28;20045;-70
2022/12/09 05:59:28;;;;;;;10.32;4.53;;;-1.00;99.90;;;;;;5004735;28;20079;-70
2022/12/09 06:01:54;;;;;;;10.98;5.35;;;-1.00;99.90;;;;;;5006141;28;20456;-70
2022/12/09 06:04:20;;;;;;;11.10;5.07;;;-1.00;99.90;;;;;;5005821;28;20049;-70
2022/12/09 06:06:45;;;;;;;15.03;5.77;;;-1.00;99.90;;;;;;5005625;28;20623;-71
2022/12/09 06:09:11;;;;;;;13.23;5.40;;;-1.00;99.90;;;;;;4987868;28;20037;-70
2022/12/09 06:11:37;;;;;;;16.38;6.78;;;-1.00;99.90;;;;;;4995863;28;20097;-70
2022/12/09 06:14:06;;;;;;;13.93;5.72;;;-1.00;99.90;;;;;;5002549;28;20238;-70
2022/12/09 06:16:32;;;;;;;14.55;5.90;;;-1.00;99.90;;;;;;4984904;28;20116;-71
2022/12/09 06:18:58;;;;;;;16.10;6.20;;;-1.00;99.90;;;;;;5001961;28;20116;-71
2022/12/09 06:21:27;;;;;;;14.95;5.82;;;-0.90;99.90;;;;;;5006653;28;20035;-71
2022/12/09 06:23:53;;;;;;;17.85;6.65;;;-0.90;99.90;;;;;;5007576;28;20030;-70
2022/12/09 06:26:21;;;;;;;18.00;6.95;;;-0.80;99.90;;;;;;5005055;28;20056;-71
2022/12/09 06:28:50;;;;;;;18.67;7.68;;;-0.80;99.90;;;;;;5004332;28;20046;-70
2022/12/09 06:31:16;;;;;;;19.83;7.68;;;-0.80;99.90;;;;;;5002245;28;20174;-70
2022/12/09 06:33:42;;;;;;;19.15;8.18;;;-0.80;99.90;;;;;;5004673;28;20046;-70
2022/12/09 06:36:09;;;;;;;21.23;8.03;;;-0.80;99.90;;;;;;5007230;28;20145;-71
2022/12/09 06:38:35;;;;;;;26.80;7.85;;;-0.80;99.90;;;;;;5005760;28;20384;-71
2022/12/09 06:41:05;;;;;;;17.48;7.35;;;-0.90;99.90;;;;;;5008566;28;20049;-70
2022/12/09 06:43:31;;;;;;;17.73;7.05;;;-0.80;99.90;;;;;;5001640;28;20041;-76
2022/12/09 06:45:57;;;;;;;21.27;7.55;;;-0.90;99.90;;;;;;5002725;28;20409;-74
2022/12/09 06:48:22;;;;;;;19.77;7.53;;;-0.80;99.90;;;;;;5004211;28;20096;-71
2022/12/09 06:50:50;;;;;;;16.13;7.17;;;-0.90;99.90;;;;;;5004375;28;20148;-77
2022/12/09 06:53:17;;;;;;;17.75;6.68;;;-0.80;99.90;;;;;;5006165;28;20579;-70
2022/12/09 06:55:43;;;;;;;16.65;6.28;;;-0.80;99.90;;;;;;5019576;28;20452;-70
2022/12/09 06:58:08;;;;;;;14.37;6.10;;;-0.80;99.90;;;;;;4995088;28;20034;-70
2022/12/09 07:00:34;;;;;;;14.43;6.30;;;-0.70;99.90;;;;;;4997019;28;20045;-70
2022/12/09 07:03:00;;;;;;;15.02;7.50;;;-0.70;99.90;;;;;;5003042;28;20404;-70
2022/12/09 07:05:26;;;;;;;14.03;6.03;;;-0.70;99.90;;;;;;5002179;28;20058;-70
2022/12/09 07:07:52;;;;;;;15.35;7.20;;;-0.70;99.90;;;;;;4987391;28;20038;-70
2022/12/09 07:10:18;;;;;;;17.23;7.00;;;-0.70;99.90;;;;;;5008414;28;20045;-70
2022/12/09 07:12:44;;;;;;;20.63;7.25;;;-0.70;99.90;;;;;;5004428;28;20807;-70
2022/12/09 07:15:10;;;;;;;16.47;6.53;;;-0.70;99.90;;;;;;4999536;28;20046;-70
2022/12/09 07:17:36;;;;;;;12.50;5.45;;;-0.60;99.90;;;;;;5004506;28;20065;-70
2022/12/09 07:20:02;;;;;;;13.87;6.70;;;-0.60;99.90;;;;;;5002677;28;20061;-70
2022/12/09 07:22:28;;;;;;;15.70;7.10;;;-0.60;99.90;;;;;;5005134;28;20415;-71
2022/12/09 07:24:53;;;;;;;19.83;6.77;;;-0.50;99.90;;;;;;5006021;28;20052;-70
2022/12/09 07:27:19;;;;;;;13.47;6.00;;;-0.50;99.90;;;;;;4999688;28;20045;-70
2022/12/09 07:29:45;;;;;;;17.63;6.67;;;-0.50;99.90;;;;;;5002564;28;20131;-70
2022/12/09 07:32:11;;;;;;;17.73;7.03;;;-0.50;99.90;;;;;;5003514;28;20074;-70
2022/12/09 07:34:37;;;;;;;17.87;7.03;;;-0.40;99.90;;;;;;5012867;28;20046;-70
2022/12/09 07:37:03;;;;;;;17.65;8.25;;;-0.40;99.90;;;;;;5010310;28;20079;-70
2022/12/09 07:39:28;;;;;;;17.40;7.77;;;-0.40;99.90;;;;;;5008306;28;20037;-70
2022/12/09 07:41:56;;;;;;;21.20;7.83;;;-0.40;99.90;;;;;;5007374;28;20068;-71
2022/12/09 07:44:23;;;;;;;16.00;7.32;;;-0.30;99.90;;;;;;5006764;28;20488;-70
2022/12/09 07:46:49;;;;;;;15.48;6.68;;;-0.30;99.90;;;;;;5006415;28;20528;-70
2022/12/09 07:49:15;;;;;;;17.80;7.90;;;-0.30;99.90;;;;;;5011023;28;20528;-70
2022/12/09 07:51:41;;;;;;;21.50;9.23;;;-0.20;99.90;;;;;;5002137;28;20034;-70
2022/12/09 07:54:14;;;;;;;23.70;9.00;;;-0.20;99.90;;;;;;5005153;28;20334;-70
2022/12/09 07:56:40;;;;;;;21.23;9.75;;;-0.10;99.90;;;;;;4999328;28;20057;-70
2022/12/09 07:59:07;;;;;;;20.77;7.97;;;-0.10;99.90;;;;;;5003297;28;20400;-71
2022/12/09 08:01:33;;;;;;;24.45;9.35;;;0.00;99.90;;;;;;5006474;28;20692;-70
2022/12/09 08:04:00;;;;;;;27.77;10.60;;;0.00;99.90;;;;;;5011009;28;20046;-70
2022/12/09 08:06:28;;;;;;;31.13;9.48;;;0.00;99.90;;;;;;5002399;28;20054;-70
2022/12/09 08:08:57;;;;;;;32.13;10.05;;;0.10;99.90;;;;;;5002076;28;20449;-70
2022/12/09 08:11:25;;;;;;;39.38;9.35;;;0.10;99.90;;;;;;5000313;28;20153;-71
2022/12/09 08:13:52;;;;;;;29.88;8.98;;;0.10;99.90;;;;;;5001055;28;20097;-71
2022/12/09 08:16:19;;;;;;;41.80;10.25;;;0.10;99.90;;;;;;5008249;28;20041;-70
2022/12/09 08:18:46;;;;;;;26.75;8.95;;;0.20;99.90;;;;;;5004137;28;20145;-70
2022/12/09 08:21:15;;;;;;;;;;;0.20;99.90;;;;;;5010432;28;20151;-70
2022/12/09 08:23:41;;;;;;;30.70;7.70;;;0.20;99.90;;;;;;5002677;28;20363;-70
2022/12/09 08:26:08;;;;;;;27.83;9.25;;;0.20;99.90;;;;;;5007124;28;20054;-70
2022/12/09 08:28:34;;;;;;;26.17;9.55;;;0.20;99.90;;;;;;5004845;28;20523;-70
2022/12/09 08:31:06;;;;;;;23.97;9.13;;;0.20;99.90;;;;;;5008858;28;20107;-70
2022/12/09 08:33:33;;;;;;;24.30;8.13;;;0.20;99.90;;;;;;4999075;28;20454;-70
2022/12/09 08:35:59;;;;;;;;;;;0.30;99.90;;;;;;5001591;28;20406;-69
2022/12/09 08:38:25;;;;;;;24.98;9.48;;;0.20;99.90;;;;;;5004523;28;20454;-70
2022/12/09 08:40:51;;;;;;;27.20;9.57;;;0.30;99.90;;;;;;5012775;28;20050;-70
2022/12/09 08:43:16;;;;;;;24.60;10.47;;;0.30;99.90;;;;;;5004359;28;20068;-70
2022/12/09 08:45:42;;;;;;;20.83;8.93;;;0.30;99.90;;;;;;5008406;28;20109;-69
2022/12/09 08:48:08;;;;;;;22.93;9.57;;;0.30;99.90;;;;;;5014217;28;20094;-70
2022/12/09 08:50:34;;;;;;;27.80;10.35;;;0.30;99.90;;;;;;5004932;28;20064;-69
2022/12/09 08:53:00;;;;;;;30.03;11.10;;;0.30;99.90;;;;;;5010071;28;20050;-70
2022/12/09 08:55:29;;;;;;;24.93;10.03;;;0.30;99.90;;;;;;5012575;28;20071;-70
2022/12/09 08:57:56;;;;;;;23.95;9.38;;;0.40;99.90;;;;;;5007857;28;20479;-70
2022/12/09 09:00:22;;;;;;;25.65;9.07;;;0.40;99.90;;;;;;4999790;28;20765;-70
2022/12/09 09:02:47;;;;;;;24.07;10.50;;;0.40;99.90;;;;;;5013017;28;20171;-70
2022/12/09 09:05:13;;;;;;;22.50;9.40;;;0.40;99.90;;;;;;5017607;28;20487;-70
2022/12/09 09:07:39;;;;;;;25.10;8.57;;;0.40;99.90;;;;;;5004248;28;20057;-70
2022/12/09 09:10:06;;;;;;;26.58;9.18;;;0.40;99.90;;;;;;5005358;28;20053;-70
2022/12/09 09:12:32;;;;;;;26.30;9.23;;;0.50;99.90;;;;;;5000416;28;20641;-71
2022/12/09 09:14:57;;;;;;;22.83;8.93;;;0.50;99.90;;;;;;5004540;28;20053;-69
2022/12/09 09:17:23;;;;;;;21.23;9.10;;;0.50;99.90;;;;;;4990844;28;20113;-69
2022/12/09 09:19:49;;;;;;;26.63;9.23;;;0.50;99.90;;;;;;5001352;28;20034;-70
2022/12/09 09:22:15;;;;;;;22.53;7.63;;;0.50;99.90;;;;;;5020514;28;20054;-70
2022/12/09 09:24:41;;;;;;;23.58;8.55;;;0.50;99.90;;;;;;5001496;28;20038;-70
2022/12/09 09:27:07;;;;;;;27.30;8.20;;;0.50;99.90;;;;;;4998659;28;20053;-70
2022/12/09 09:29:33;;;;;;;24.03;9.13;;;0.50;99.90;;;;;;5011981;28;20042;-70
2022/12/09 09:31:59;;;;;;;36.95;8.50;;;0.50;99.90;;;;;;5005824;28;20058;-70
2022/12/09 09:34:26;;;;;;;33.87;9.97;;;0.50;99.90;;;;;;5006143;28;20057;-70
2022/12/09 09:36:53;;;;;;;28.85;9.85;;;0.60;99.90;;;;;;5007462;28;20353;-69
2022/12/09 09:39:19;;;;;;;31.95;10.07;;;0.50;99.90;;;;;;4999675;28;20043;-69
2022/12/09 09:41:52;;;;;;;25.52;9.25;;;0.60;99.90;;;;;;5009345;28;20042;-70
2022/12/09 09:44:27;;;;;;;29.60;9.40;;;0.60;99.90;;;;;;5007953;28;20050;-70
2022/12/09 09:46:55;;;;;;;23.05;8.60;;;0.70;99.90;;;;;;5011880;28;20061;-70
2022/12/09 09:49:27;;;;;;;23.45;9.00;;;0.60;99.90;;;;;;5005183;28;20042;-70
2022/12/09 09:51:53;;;;;;;27.60;9.65;;;0.60;99.90;;;;;;5014469;28;20040;-70
2022/12/09 09:54:19;;;;;;;28.92;8.70;;;0.60;99.90;;;;;;5013154;28;20064;-70
2022/12/09 09:56:58;;;;;;;28.10;10.33;;;0.60;99.90;;;;;;5006107;28;20041;-69
2022/12/09 09:59:28;;;;;;;21.45;9.00;;;0.70;99.90;;;;;;5010012;28;20041;-70
2022/12/09 10:02:08;;;;;;;30.13;9.60;;;0.60;99.90;;;;;;5011420;28;20423;-70
2022/12/09 10:04:43;;;;;;;22.80;8.27;;;0.70;99.90;;;;;;5016890;28;20120;-69
2022/12/09 10:07:29;;;;;;;23.05;8.52;;;0.70;99.90;;;;;;5011306;28;20403;-70
2022/12/09 10:10:56;;;;;;;25.90;9.00;;;0.70;99.90;;;;;;5007353;28;20085;-70
2022/12/09 10:13:24;;;;;;;23.20;9.00;;;0.70;99.90;;;;;;4937633;29;20031;-70
2022/12/09 10:16:01;;;;;;;25.38;9.68;;;0.70;99.90;;;;;;4922306;29;20044;-70
2022/12/09 10:19:07;;;;;;;26.02;8.82;;;0.80;99.90;;;;;;4975763;28;20124;-69
2022/12/09 10:21:38;;;;;;;31.17;10.73;;;0.80;99.90;;;;;;5009752;28;20149;-70
2022/12/09 10:24:21;;;;;;;26.73;9.10;;;0.80;99.90;;;;;;5007654;28;20038;-70
2022/12/09 10:27:01;;;;;;;24.02;9.70;;;0.80;99.90;;;;;;5022079;28;20118;-70
2022/12/09 10:30:01;;;;;;;22.33;9.10;;;0.80;99.90;;;;;;5006491;28;20057;-70
2022/12/09 10:32:33;;;;;;;28.60;10.18;;;0.90;99.90;;;;;;5012643;28;20083;-71
2022/12/09 10:35:00;;;;;;;23.20;9.23;;;0.90;99.90;;;;;;4999838;28;20045;-74
2022/12/09 10:37:30;;;;;;;;;;;0.90;99.90;;;;;;4999285;28;20321;-70
2022/12/09 10:40:03;;;;;;;25.70;9.80;;;1.00;99.90;;;;;;5000331;28;20408;-70
2022/12/09 10:45:17;;;;;;;24.63;9.20;;;1.00;99.90;;;;;;5003566;28;20046;-70
2022/12/09 10:47:50;;;;;;;21.40;8.73;;;1.10;99.90;;;;;;5009861;28;20104;-70
2022/12/09 10:50:45;;;;;;;22.52;8.70;;;1.10;99.90;;;;;;5010138;28;20117;-70
2022/12/09 10:53:14;;;;;;;20.33;8.52;;;1.10;99.90;;;;;;4992265;28;20054;-70
2022/12/09 10:58:20;;;;;;;26.42;9.63;;;1.20;99.90;;;;;;5007313;28;20046;-69
2022/12/09 11:01:10;;;;;;;20.83;8.77;;;1.20;99.90;;;;;;5007531;28;20411;-69
2022/12/09 11:03:40;;;;;;;27.00;9.68;;;1.20;99.90;;;;;;5004938;28;20489;-69
2022/12/09 11:06:14;;;;;;;20.35;9.40;;;1.20;99.90;;;;;;5002444;28;20138;-69
2022/12/09 11:08:40;;;;;;;21.60;9.40;;;1.30;99.90;;;;;;4998003;28;20587;-69
2022/12/09 11:11:07;;;;;;;24.30;9.20;;;1.30;99.90;;;;;;5003538;28;20042;-69
2022/12/09 11:13:39;;;;;;;22.33;9.30;;;1.30;99.90;;;;;;5007161;28;20476;-69
2022/12/09 11:16:06;;;;;;;26.23;8.02;;;1.40;99.90;;;;;;5004216;28;20361;-70
2022/12/09 11:18:47;;;;;;;24.20;9.18;;;1.30;99.90;;;;;;5004118;28;20045;-70
2022/12/09 11:21:34;;;;;;;24.90;8.88;;;1.40;99.90;;;;;;4984490;28;20716;-70
2022/12/09 11:24:01;;;;;;;22.05;8.82;;;1.40;99.90;;;;;;5004432;28;20436;-70
2022/12/09 11:26:37;;;;;;;23.38;9.43;;;1.40;99.90;;;;;;4997907;28;20049;-69
2022/12/09 11:29:17;;;;;;;18.50;9.15;;;1.40;99.90;;;;;;5018784;28;20042;-69
2022/12/09 11:31:44;;;;;;;26.33;9.88;;;1.40;99.90;;;;;;4998140;28;20235;-69
2022/12/09 11:34:19;;;;;;;21.08;9.18;;;1.50;99.90;;;;;;5007997;28;20041;-70
2022/12/09 11:36:52;;;;;;;19.48;9.13;;;1.50;99.90;;;;;;5004159;28;20038;-70
2022/12/09 11:39:20;;;;;;;18.48;8.35;;;1.50;99.90;;;;;;5006280;28;20065;-70
2022/12/09 11:44:35;;;;;;;25.63;10.02;;;1.60;99.90;;;;;;4995557;28;20129;-70
2022/12/09 11:47:11;;;;;;;22.17;9.27;;;1.50;99.90;;;;;;4997925;28;20041;-70
2022/12/09 11:49:49;;;;;;;24.33;8.70;;;1.50;99.90;;;;;;5002376;28;20085;-70
2022/12/09 11:52:18;;;;;;;20.70;8.90;;;1.50;99.90;;;;;;5016921;28;20080;-70
2022/12/09 11:54:56;;;;;;;19.92;8.90;;;1.50;99.90;;;;;;5007486;28;20101;-70
2022/12/09 11:57:45;;;;;;;23.02;9.75;;;1.50;99.90;;;;;;5005530;28;20084;-72
2022/12/09 12:00:26;;;;;;;23.63;8.77;;;1.40;99.90;;;;;;4992667;28;20050;-70
2022/12/09 12:03:05;;;;;;;21.63;9.45;;;1.40;99.90;;;;;;4996378;28;20053;-69
2022/12/09 12:05:36;;;;;;;23.10;9.73;;;1.40;99.90;;;;;;4995599;28;20050;-70
2022/12/09 12:08:11;;;;;;;24.73;9.02;;;1.30;99.90;;;;;;4998130;28;20038;-70
2022/12/09 12:10:41;;;;;;;20.95;9.38;;;1.30;99.90;;;;;;5001176;28;20041;-69
2022/12/09 12:13:22;;;;;;;25.23;9.52;;;1.40;99.90;;;;;;5000619;28;20129;-70
2022/12/09 12:16:11;;;;;;;22.02;10.18;;;1.40;99.90;;;;;;5002262;28;20046;-69
2022/12/09 12:19:08;;;;;;;25.20;10.32;;;1.40;99.90;;;;;;5003319;28;20050;-69
2022/12/09 12:21:46;;;;;;;29.35;10.65;;;1.40;99.90;;;;;;4993456;28;20049;-69
2022/12/09 12:24:24;;;;;;;22.98;9.95;;;1.40;99.90;;;;;;4996982;28;20491;-69
2022/12/09 12:27:13;;;;;;;27.95;10.98;;;1.50;99.90;;;;;;4986722;28;20129;-69
2022/12/09 12:30:00;;;;;;;26.75;11.00;;;1.50;99.90;;;;;;5003635;28;20045;-69
2022/12/09 12:32:50;;;;;;;29.05;10.00;;;1.50;99.90;;;;;;4996212;28;20104;-70
2022/12/09 12:35:30;;;;;;;23.15;10.35;;;1.50;99.90;;;;;;4998951;28;20382;-69
2022/12/09 12:38:17;;;;;;;27.15;10.25;;;1.50;99.90;;;;;;5012814;28;20034;-69
2022/12/09 12:41:22;;;;;;;28.25;11.18;;;1.50;99.90;;;;;;5010793;28;20343;-69
2022/12/09 12:47:22;;;;;;;28.85;11.23;;;1.50;99.90;;;;;;5000329;28;20050;-70
2022/12/09 12:49:57;;;;;;;26.63;11.20;;;1.60;99.90;;;;;;5003121;28;20860;-70
2022/12/09 12:52:48;;;;;;;25.73;11.32;;;1.60;99.90;;;;;;5002851;28;20136;-70
2022/12/09 12:55:32;;;;;;;26.67;10.52;;;1.50;99.90;;;;;;5018334;28;20038;-70
2022/12/09 12:58:22;;;;;;;25.05;11.35;;;1.50;99.90;;;;;;5003880;28;20116;-70
2022/12/09 13:01:15;;;;;;;25.42;10.32;;;1.50;99.90;;;;;;5000758;28;20092;-70
2022/12/09 13:04:14;;;;;;;31.38;11.85;;;1.50;99.90;;;;;;5009777;28;20042;-70
2022/12/09 13:07:03;;;;;;;25.30;10.50;;;1.50;99.90;;;;;;5004655;28;20058;-70
2022/12/09 13:09:34;;;;;;;26.60;10.45;;;1.50;99.90;;;;;;5002083;28;20104;-70